sensor_id;sensor_type;location;lat;lon;timestamp;pressure;altitude;pressure_sealevel;temperature;humidity
14689;BME280;7432;48.728;9.154;2023-04-27T00:00:24;96636.94;;;8.12;77.61
14689;BME280;7432;48.728;9.154;2023-04-27T00:02:51;96641.50;;;8.18;77.72
14689;BME280;7432;48.728;9.154;2023-04-27T00:05:19;96630.44;;;8.17;77.83
14689;BME280;7432;48.728;9.154;2023-04-27T00:07:45;96631.41;;;8.16;77.56
14689;BME280;7432;48.728;9.154;2023-04-27T00:10:11;96624.81;;;8.14;77.87
14689;BME280;7432;48.728;9.154;2023-04-27T00:12:38;96627.50;;;8.12;77.39
14689;BME280;7432;48.728;9.154;2023-04-27T00:15:07;96632.34;;;8.15;78.00
14689;BME280;7432;48.728;9.154;2023-04-27T00:17:34;96629.69;;;8.07;78.06
14689;BME280;7432;48.728;9.154;2023-04-27T00:20:01;96627.94;;;8.08;78.22
14689;BME280;7432;48.728;9.154;2023-04-27T00:22:30;96627.22;;;8.15;77.67
14689;BME280;7432;48.728;9.154;2023-04-27T00:24:57;96618.59;;;8.16;78.87
14689;BME280;7432;48.728;9.154;2023-04-27T00:27:23;96618.16;;;8.21;76.90
14689;BME280;7432;48.728;9.154;2023-04-27T00:29:49;96617.50;;;8.19;77.81
14689;BME280;7432;48.728;9.154;2023-04-27T00:32:16;96621.00;;;8.18;78.63
14689;BME280;7432;48.728;9.154;2023-04-27T00:34:42;96617.63;;;8.17;77.95
14689;BME280;7432;48.728;9.154;2023-04-27T00:37:08;96620.88;;;8.10;79.65
14689;BME280;7432;48.728;9.154;2023-04-27T00:39:36;96614.94;;;8.09;79.35
14689;BME280;7432;48.728;9.154;2023-04-27T00:42:03;96606.59;;;8.07;79.81
14689;BME280;7432;48.728;9.154;2023-04-27T00:44:30;96611.44;;;8.10;78.84
14689;BME280;7432;48.728;9.154;2023-04-27T00:46:57;96601.75;;;8.04;78.63
14689;BME280;7432;48.728;9.154;2023-04-27T00:49:25;96606.34;;;8.01;79.59
14689;BME280;7432;48.728;9.154;2023-04-27T00:51:51;96603.94;;;7.99;78.67
14689;BME280;7432;48.728;9.154;2023-04-27T00:54:19;96601.75;;;8.04;78.70
14689;BME280;7432;48.728;9.154;2023-04-27T00:56:48;96598.28;;;7.96;79.70
14689;BME280;7432;48.728;9.154;2023-04-27T00:59:15;96599.38;;;7.93;78.32
14689;BME280;7432;48.728;9.154;2023-04-27T01:01:42;96596.00;;;7.93;78.88
14689;BME280;7432;48.728;9.154;2023-04-27T01:04:09;96607.31;;;8.00;78.94
14689;BME280;7432;48.728;9.154;2023-04-27T01:06:35;96604.75;;;8.00;77.39
14689;BME280;7432;48.728;9.154;2023-04-27T01:09:03;96602.59;;;7.95;78.02
14689;BME280;7432;48.728;9.154;2023-04-27T01:11:31;96603.84;;;7.91;77.72
14689;BME280;7432;48.728;9.154;2023-04-27T01:14:02;96606.13;;;7.94;76.95
14689;BME280;7432;48.728;9.154;2023-04-27T01:16:28;96600.34;;;7.92;78.13
14689;BME280;7432;48.728;9.154;2023-04-27T01:18:55;96606.22;;;8.02;76.76
14689;BME280;7432;48.728;9.154;2023-04-27T01:21:22;96605.59;;;7.91;77.46
14689;BME280;7432;48.728;9.154;2023-04-27T01:23:50;96606.53;;;7.90;78.15
14689;BME280;7432;48.728;9.154;2023-04-27T01:26:16;96611.66;;;7.90;77.77
14689;BME280;7432;48.728;9.154;2023-04-27T01:28:43;96617.22;;;7.85;79.17
14689;BME280;7432;48.728;9.154;2023-04-27T01:31:09;96609.25;;;7.88;78.50
14689;BME280;7432;48.728;9.154;2023-04-27T01:33:36;96603.47;;;7.76;77.77
14689;BME280;7432;48.728;9.154;2023-04-27T01:36:03;96607.22;;;7.82;77.95
14689;BME280;7432;48.728;9.154;2023-04-27T01:38:31;96601.81;;;7.85;77.93
14689;BME280;7432;48.728;9.154;2023-04-27T01:40:59;96605.59;;;7.91;77.58
14689;BME280;7432;48.728;9.154;2023-04-27T01:43:27;96602.38;;;7.79;77.77
14689;BME280;7432;48.728;9.154;2023-04-27T01:45:53;96601.00;;;7.85;77.82
14689;BME280;7432;48.728;9.154;2023-04-27T01:48:21;96605.09;;;7.68;78.28
14689;BME280;7432;48.728;9.154;2023-04-27T01:50:47;96595.28;;;7.73;77.63
14689;BME280;7432;48.728;9.154;2023-04-27T01:53:14;96593.66;;;7.72;77.48
14689;BME280;7432;48.728;9.154;2023-04-27T01:55:40;96602.44;;;7.60;78.11
14689;BME280;7432;48.728;9.154;2023-04-27T01:58:08;96616.50;;;7.56;79.43
14689;BME280;7432;48.728;9.154;2023-04-27T02:00:34;96611.47;;;7.54;78.46
14689;BME280;7432;48.728;9.154;2023-04-27T02:03:01;96616.09;;;7.51;78.97
14689;BME280;7432;48.728;9.154;2023-04-27T02:05:27;96610.28;;;7.49;78.59
14689;BME280;7432;48.728;9.154;2023-04-27T02:07:54;96617.56;;;7.53;77.32
14689;BME280;7432;48.728;9.154;2023-04-27T02:10:20;96612.69;;;7.60;77.55
14689;BME280;7432;48.728;9.154;2023-04-27T02:12:47;96610.28;;;7.58;77.48
14689;BME280;7432;48.728;9.154;2023-04-27T02:15:15;96622.28;;;7.58;78.21
14689;BME280;7432;48.728;9.154;2023-04-27T02:17:41;96619.97;;;7.55;77.78
14689;BME280;7432;48.728;9.154;2023-04-27T02:20:08;96625.22;;;7.63;77.47
14689;BME280;7432;48.728;9.154;2023-04-27T02:22:39;96622.44;;;7.56;77.92
14689;BME280;7432;48.728;9.154;2023-04-27T02:25:08;96622.69;;;7.53;77.36
14689;BME280;7432;48.728;9.154;2023-04-27T02:27:36;96626.75;;;7.56;77.13
14689;BME280;7432;48.728;9.154;2023-04-27T02:30:03;96630.78;;;7.58;76.61
14689;BME280;7432;48.728;9.154;2023-04-27T02:32:31;96630.50;;;7.61;77.60
14689;BME280;7432;48.728;9.154;2023-04-27T02:34:58;96629.53;;;7.62;76.91
14689;BME280;7432;48.728;9.154;2023-04-27T02:37:24;96632.91;;;7.63;76.68
14689;BME280;7432;48.728;9.154;2023-04-27T02:39:51;96633.47;;;7.57;77.15
14689;BME280;7432;48.728;9.154;2023-04-27T02:42:17;96635.09;;;7.58;77.02
14689;BME280;7432;48.728;9.154;2023-04-27T02:44:43;96636.44;;;7.62;77.38
14689;BME280;7432;48.728;9.154;2023-04-27T02:47:10;96642.34;;;7.62;76.67
14689;BME280;7432;48.728;9.154;2023-04-27T02:49:38;96633.47;;;7.57;77.46
14689;BME280;7432;48.728;9.154;2023-04-27T02:52:05;96632.25;;;7.61;76.42
14689;BME280;7432;48.728;9.154;2023-04-27T02:54:31;96636.28;;;7.63;76.05
14689;BME280;7432;48.728;9.154;2023-04-27T02:56:58;96636.94;;;7.65;75.93
14689;BME280;7432;48.728;9.154;2023-04-27T02:59:24;96636.94;;;7.65;76.25
14689;BME280;7432;48.728;9.154;2023-04-27T03:01:51;96642.66;;;7.59;77.89
14689;BME280;7432;48.728;9.154;2023-04-27T03:04:17;96640.75;;;7.52;77.31
14689;BME280;7432;48.728;9.154;2023-04-27T03:06:45;96640.47;;;7.55;77.76
14689;BME280;7432;48.728;9.154;2023-04-27T03:09:12;96641.69;;;7.60;77.37
14689;BME280;7432;48.728;9.154;2023-04-27T03:11:38;96625.00;;;7.56;77.56
14689;BME280;7432;48.728;9.154;2023-04-27T03:14:04;96632.78;;;7.64;77.56
14689;BME280;7432;48.728;9.154;2023-04-27T03:16:31;96639.78;;;7.62;78.50
14689;BME280;7432;48.728;9.154;2023-04-27T03:18:57;96642.09;;;7.56;78.87
14689;BME280;7432;48.728;9.154;2023-04-27T03:21:24;96628.63;;;7.54;77.68
14689;BME280;7432;48.728;9.154;2023-04-27T03:23:52;96626.59;;;7.57;78.09
14689;BME280;7432;48.728;9.154;2023-04-27T03:26:19;96627.81;;;7.53;78.22
14689;BME280;7432;48.728;9.154;2023-04-27T03:28:46;96640.34;;;7.56;77.72
14689;BME280;7432;48.728;9.154;2023-04-27T03:31:13;96637.53;;;7.59;78.38
14689;BME280;7432;48.728;9.154;2023-04-27T03:33:40;96635.91;;;7.58;78.29
14689;BME280;7432;48.728;9.154;2023-04-27T03:36:07;96633.06;;;7.61;76.74
14689;BME280;7432;48.728;9.154;2023-04-27T03:38:34;96639.66;;;7.54;77.66
14689;BME280;7432;48.728;9.154;2023-04-27T03:41:02;96636.31;;;7.54;78.37
14689;BME280;7432;48.728;9.154;2023-04-27T03:43:29;96633.88;;;7.52;77.88
14689;BME280;7432;48.728;9.154;2023-04-27T03:45:55;96638.34;;;7.50;78.17
14689;BME280;7432;48.728;9.154;2023-04-27T03:48:21;96636.72;;;7.59;78.83
14689;BME280;7432;48.728;9.154;2023-04-27T03:50:48;96640.34;;;7.56;76.97
14689;BME280;7432;48.728;9.154;2023-04-27T03:53:14;96642.50;;;7.51;76.50
14689;BME280;7432;48.728;9.154;2023-04-27T03:55:42;96643.03;;;7.55;76.89
14689;BME280;7432;48.728;9.154;2023-04-27T03:58:10;96635.09;;;7.58;77.66
14689;BME280;7432;48.728;9.154;2023-04-27T04:00:37;96641.56;;;7.62;77.38
14689;BME280;7432;48.728;9.154;2023-04-27T04:03:05;96640.47;;;7.64;77.12
14689;BME280;7432;48.728;9.154;2023-04-27T04:05:32;96641.97;;;7.57;77.26
14689;BME280;7432;48.728;9.154;2023-04-27T04:07:58;96645.88;;;7.61;77.27
14689;BME280;7432;48.728;9.154;2023-04-27T04:10:24;96641.56;;;7.52;78.63
14689;BME280;7432;48.728;9.154;2023-04-27T04:12:51;96646.28;;;7.57;78.59
14689;BME280;7432;48.728;9.154;2023-04-27T04:15:19;96643.03;;;7.64;78.60
14689;BME280;7432;48.728;9.154;2023-04-27T04:17:45;96644.78;;;7.54;78.17
14689;BME280;7432;48.728;9.154;2023-04-27T04:20:13;96644.53;;;7.57;78.61
14689;BME280;7432;48.728;9.154;2023-04-27T04:22:40;96646.41;;;7.55;78.15
14689;BME280;7432;48.728;9.154;2023-04-27T04:25:07;96647.78;;;7.59;79.30
14689;BME280;7432;48.728;9.154;2023-04-27T04:27:34;96646.81;;;7.60;79.49
14689;BME280;7432;48.728;9.154;2023-04-27T04:30:01;96650.34;;;7.59;78.44
14689;BME280;7432;48.728;9.154;2023-04-27T04:32:30;96653.28;;;7.64;79.35
14689;BME280;7432;48.728;9.154;2023-04-27T04:34:58;96653.97;;;7.66;78.47
14689;BME280;7432;48.728;9.154;2023-04-27T04:37:25;96660.13;;;7.73;78.33
14689;BME280;7432;48.728;9.154;2023-04-27T04:39:52;96660.28;;;7.62;78.53
14689;BME280;7432;48.728;9.154;2023-04-27T04:42:18;96662.56;;;7.65;79.39
14689;BME280;7432;48.728;9.154;2023-04-27T04:44:45;96668.63;;;7.74;78.33
14689;BME280;7432;48.728;9.154;2023-04-27T04:47:11;96653.81;;;7.68;78.47
14689;BME280;7432;48.728;9.154;2023-04-27T04:49:39;96664.72;;;7.80;78.48
14689;BME280;7432;48.728;9.154;2023-04-27T04:52:05;96669.56;;;7.83;77.92
14689;BME280;7432;48.728;9.154;2023-04-27T04:54:32;96658.22;;;7.85;78.18
14689;BME280;7432;48.728;9.154;2023-04-27T04:56:58;96654.97;;;7.93;79.08
14689;BME280;7432;48.728;9.154;2023-04-27T04:59:25;96662.47;;;8.04;78.02
14689;BME280;7432;48.728;9.154;2023-04-27T05:01:51;96655.16;;;8.18;78.12
14689;BME280;7432;48.728;9.154;2023-04-27T05:04:19;96658.28;;;8.12;78.88
14689;BME280;7432;48.728;9.154;2023-04-27T05:06:47;96662.84;;;8.18;78.37
14689;BME280;7432;48.728;9.154;2023-04-27T05:09:13;96664.69;;;8.36;78.11
14689;BME280;7432;48.728;9.154;2023-04-27T05:11:40;96658.69;;;8.45;78.12
14689;BME280;7432;48.728;9.154;2023-04-27T05:14:06;96665.81;;;8.51;76.98
14689;BME280;7432;48.728;9.154;2023-04-27T05:16:32;96658.75;;;8.62;76.93
14689;BME280;7432;48.728;9.154;2023-04-27T05:18:59;96665.44;;;8.73;76.52
14689;BME280;7432;48.728;9.154;2023-04-27T05:21:25;96662.97;;;8.81;76.83
14689;BME280;7432;48.728;9.154;2023-04-27T05:23:53;96660.63;;;8.87;74.87
14689;BME280;7432;48.728;9.154;2023-04-27T05:26:19;96665.03;;;8.95;74.16
14689;BME280;7432;48.728;9.154;2023-04-27T05:28:45;96662.81;;;9.00;72.61
14689;BME280;7432;48.728;9.154;2023-04-27T05:31:13;96669.75;;;9.17;72.70
14689;BME280;7432;48.728;9.154;2023-04-27T05:33:39;96670.00;;;9.32;73.13
14689;BME280;7432;48.728;9.154;2023-04-27T05:36:06;96673.47;;;9.40;73.27
14689;BME280;7432;48.728;9.154;2023-04-27T05:38:33;96675.38;;;9.56;72.56
14689;BME280;7432;48.728;9.154;2023-04-27T05:41:05;96678.72;;;9.74;71.39
14689;BME280;7432;48.728;9.154;2023-04-27T05:43:32;96682.63;;;9.86;70.97
14689;BME280;7432;48.728;9.154;2023-04-27T05:45:59;96678.41;;;10.03;71.78
14689;BME280;7432;48.728;9.154;2023-04-27T05:48:25;96679.00;;;10.15;71.13
14689;BME280;7432;48.728;9.154;2023-04-27T05:50:58;96682.63;;;10.30;70.27
14689;BME280;7432;48.728;9.154;2023-04-27T05:53:24;96687.38;;;10.50;69.64
14689;BME280;7432;48.728;9.154;2023-04-27T05:55:50;96692.91;;;10.71;68.83
14689;BME280;7432;48.728;9.154;2023-04-27T05:58:18;96692.81;;;10.89;68.10
14689;BME280;7432;48.728;9.154;2023-04-27T06:00:44;96690.63;;;11.10;68.85
14689;BME280;7432;48.728;9.154;2023-04-27T06:03:11;96698.22;;;11.28;67.45
14689;BME280;7432;48.728;9.154;2023-04-27T06:05:37;96701.44;;;11.30;63.85
14689;BME280;7432;48.728;9.154;2023-04-27T06:08:04;96712.09;;;11.35;63.54
14689;BME280;7432;48.728;9.154;2023-04-27T06:10:30;96710.81;;;11.47;63.25
14689;BME280;7432;48.728;9.154;2023-04-27T06:12:57;96703.41;;;11.68;63.57
14689;BME280;7432;48.728;9.154;2023-04-27T06:15:24;96709.84;;;11.88;63.45
14689;BME280;7432;48.728;9.154;2023-04-27T06:17:51;96703.22;;;12.18;62.76
14689;BME280;7432;48.728;9.154;2023-04-27T06:20:17;96705.38;;;12.54;61.84
14689;BME280;7432;48.728;9.154;2023-04-27T06:22:43;96702.78;;;12.92;60.86
14689;BME280;7432;48.728;9.154;2023-04-27T06:25:10;96705.81;;;13.35;59.29
14689;BME280;7432;48.728;9.154;2023-04-27T06:27:37;96711.84;;;13.73;58.18
14689;BME280;7432;48.728;9.154;2023-04-27T06:30:04;96725.59;;;14.10;55.97
14689;BME280;7432;48.728;9.154;2023-04-27T06:32:32;96725.56;;;14.33;55.81
14689;BME280;7432;48.728;9.154;2023-04-27T06:34:58;96723.25;;;14.53;54.86
14689;BME280;7432;48.728;9.154;2023-04-27T06:37:25;96724.50;;;14.71;54.08
14689;BME280;7432;48.728;9.154;2023-04-27T06:39:51;96725.88;;;15.03;53.59
14689;BME280;7432;48.728;9.154;2023-04-27T06:42:17;96734.34;;;15.83;52.09
14689;BME280;7432;48.728;9.154;2023-04-27T06:44:44;96732.31;;;16.55;50.53
14689;BME280;7432;48.728;9.154;2023-04-27T06:47:10;96727.44;;;17.41;48.39
14689;BME280;7432;48.728;9.154;2023-04-27T06:49:38;96729.38;;;17.86;47.30
14689;BME280;7432;48.728;9.154;2023-04-27T06:52:05;96726.94;;;17.85;45.28
14689;BME280;7432;48.728;9.154;2023-04-27T06:54:31;96739.59;;;18.07;44.97
14689;BME280;7432;48.728;9.154;2023-04-27T06:56:57;96729.16;;;18.60;44.50
14689;BME280;7432;48.728;9.154;2023-04-27T06:59:24;96738.50;;;19.38;42.43
14689;BME280;7432;48.728;9.154;2023-04-27T07:01:51;96748.66;;;19.90;41.04
14689;BME280;7432;48.728;9.154;2023-04-27T07:04:17;96749.34;;;20.04;40.62
14689;BME280;7432;48.728;9.154;2023-04-27T07:06:45;96748.66;;;20.64;40.10
14689;BME280;7432;48.728;9.154;2023-04-27T07:09:11;96743.91;;;21.46;36.82
14689;BME280;7432;48.728;9.154;2023-04-27T07:11:38;96745.41;;;22.36;35.62
14689;BME280;7432;48.728;9.154;2023-04-27T07:14:05;96741.31;;;23.26;34.89
14689;BME280;7432;48.728;9.154;2023-04-27T07:16:31;96751.97;;;23.59;33.54
14689;BME280;7432;48.728;9.154;2023-04-27T07:18:57;96741.81;;;23.96;32.41
14689;BME280;7432;48.728;9.154;2023-04-27T07:21:24;96743.41;;;23.52;32.30
14689;BME280;7432;48.728;9.154;2023-04-27T07:23:52;96747.56;;;23.77;32.73
14689;BME280;7432;48.728;9.154;2023-04-27T07:26:18;96737.19;;;23.87;32.09
14689;BME280;7432;48.728;9.154;2023-04-27T07:28:45;96760.41;;;24.73;32.29
14689;BME280;7432;48.728;9.154;2023-04-27T07:31:12;96747.19;;;26.03;30.09
14689;BME280;7432;48.728;9.154;2023-04-27T07:33:39;96753.16;;;26.57;29.10
14689;BME280;7432;48.728;9.154;2023-04-27T07:36:05;96747.59;;;26.95;28.01
14689;BME280;7432;48.728;9.154;2023-04-27T07:38:32;96747.03;;;27.40;27.53
14689;BME280;7432;48.728;9.154;2023-04-27T07:41:00;96751.13;;;28.74;26.05
14689;BME280;7432;48.728;9.154;2023-04-27T07:43:27;96746.38;;;29.94;24.65
14689;BME280;7432;48.728;9.154;2023-04-27T07:45:53;96744.53;;;30.57;24.01
14689;BME280;7432;48.728;9.154;2023-04-27T07:48:22;96748.59;;;29.23;24.56
14689;BME280;7432;48.728;9.154;2023-04-27T07:50:48;96759.25;;;29.67;24.83
14689;BME280;7432;48.728;9.154;2023-04-27T07:53:15;96749.97;;;29.59;24.95
14689;BME280;7432;48.728;9.154;2023-04-27T07:55:41;96747.34;;;28.80;24.78
14689;BME280;7432;48.728;9.154;2023-04-27T07:58:10;96744.53;;;26.35;26.56
14689;BME280;7432;48.728;9.154;2023-04-27T08:00:37;96742.63;;;24.63;28.35
14689;BME280;7432;48.728;9.154;2023-04-27T08:03:03;96736.22;;;23.76;30.95
14689;BME280;7432;48.728;9.154;2023-04-27T08:05:30;96738.81;;;24.38;30.10
14689;BME280;7432;48.728;9.154;2023-04-27T08:07:56;96738.25;;;26.09;28.53
14689;BME280;7432;48.728;9.154;2023-04-27T08:10:23;96732.78;;;27.61;26.01
14689;BME280;7432;48.728;9.154;2023-04-27T08:12:49;96743.81;;;29.15;24.91
14689;BME280;7432;48.728;9.154;2023-04-27T08:15:17;96738.00;;;29.08;25.11
14689;BME280;7432;48.728;9.154;2023-04-27T08:17:43;96745.44;;;30.09;24.76
14689;BME280;7432;48.728;9.154;2023-04-27T08:20:11;96741.16;;;31.65;23.34
14689;BME280;7432;48.728;9.154;2023-04-27T08:22:38;96737.34;;;32.87;21.43
14689;BME280;7432;48.728;9.154;2023-04-27T08:25:05;96734.31;;;31.96;21.33
14689;BME280;7432;48.728;9.154;2023-04-27T08:27:32;96725.69;;;31.48;21.55
14689;BME280;7432;48.728;9.154;2023-04-27T08:29:59;96733.09;;;30.57;22.34
14689;BME280;7432;48.728;9.154;2023-04-27T08:32:27;96728.19;;;32.14;22.59
14689;BME280;7432;48.728;9.154;2023-04-27T08:34:53;96726.16;;;33.25;21.04
14689;BME280;7432;48.728;9.154;2023-04-27T08:37:20;96727.41;;;33.91;21.12
14689;BME280;7432;48.728;9.154;2023-04-27T08:39:46;96727.53;;;33.86;20.45
14689;BME280;7432;48.728;9.154;2023-04-27T08:42:13;96720.97;;;33.56;20.35
14689;BME280;7432;48.728;9.154;2023-04-27T08:44:41;96721.19;;;34.18;20.78
14689;BME280;7432;48.728;9.154;2023-04-27T08:47:07;96721.19;;;34.48;19.80
14689;BME280;7432;48.728;9.154;2023-04-27T08:49:35;96715.41;;;34.55;19.04
14689;BME280;7432;48.728;9.154;2023-04-27T08:52:02;96719.47;;;34.75;20.61
14689;BME280;7432;48.728;9.154;2023-04-27T08:54:29;96722.38;;;34.95;18.27
14689;BME280;7432;48.728;9.154;2023-04-27T08:56:55;96704.72;;;32.30;20.60
14689;BME280;7432;48.728;9.154;2023-04-27T08:59:22;96718.47;;;33.10;20.27
14689;BME280;7432;48.728;9.154;2023-04-27T09:01:48;96700.34;;;30.32;22.76
14689;BME280;7432;48.728;9.154;2023-04-27T09:04:15;96708.59;;;30.83;21.70
14689;BME280;7432;48.728;9.154;2023-04-27T09:06:43;96704.75;;;31.18;21.84
14689;BME280;7432;48.728;9.154;2023-04-27T09:09:20;96706.34;;;30.72;22.22
14689;BME280;7432;48.728;9.154;2023-04-27T09:11:47;96701.66;;;30.01;21.92
14689;BME280;7432;48.728;9.154;2023-04-27T09:14:16;96702.69;;;30.39;22.81
14689;BME280;7432;48.728;9.154;2023-04-27T09:16:42;96712.09;;;32.19;21.75
14689;BME280;7432;48.728;9.154;2023-04-27T09:19:09;96705.78;;;31.22;21.07
14689;BME280;7432;48.728;9.154;2023-04-27T09:21:35;96712.69;;;31.98;20.60
14689;BME280;7432;48.728;9.154;2023-04-27T09:24:10;96718.44;;;32.23;19.98
14689;BME280;7432;48.728;9.154;2023-04-27T09:26:37;96718.38;;;32.42;20.31
14689;BME280;7432;48.728;9.154;2023-04-27T09:29:03;96725.09;;;32.86;20.74
14689;BME280;7432;48.728;9.154;2023-04-27T09:31:30;96719.84;;;32.94;20.25
14689;BME280;7432;48.728;9.154;2023-04-27T09:33:57;96713.31;;;33.41;20.27
14689;BME280;7432;48.728;9.154;2023-04-27T09:36:24;96714.28;;;33.04;20.83
14689;BME280;7432;48.728;9.154;2023-04-27T09:38:51;96708.41;;;32.48;21.02
14689;BME280;7432;48.728;9.154;2023-04-27T09:41:19;96709.22;;;32.48;20.03
14689;BME280;7432;48.728;9.154;2023-04-27T09:43:46;96720.22;;;32.74;20.38
14689;BME280;7432;48.728;9.154;2023-04-27T09:46:12;96720.84;;;33.12;20.70
14689;BME280;7432;48.728;9.154;2023-04-27T09:48:40;96709.47;;;33.56;19.83
14689;BME280;7432;48.728;9.154;2023-04-27T09:51:07;96714.50;;;33.21;19.65
14689;BME280;7432;48.728;9.154;2023-04-27T09:53:37;96710.75;;;33.22;20.02
14689;BME280;7432;48.728;9.154;2023-04-27T09:56:19;96697.38;;;32.68;19.97
14689;BME280;7432;48.728;9.154;2023-04-27T09:59:17;96708.06;;;31.71;20.47
14689;BME280;7432;48.728;9.154;2023-04-27T10:01:53;96690.22;;;29.67;23.06
14689;BME280;7432;48.728;9.154;2023-04-27T10:04:33;96691.25;;;28.17;24.09
14689;BME280;7432;48.728;9.154;2023-04-27T10:07:04;96686.31;;;26.62;26.56
14689;BME280;7432;48.728;9.154;2023-04-27T10:09:36;96691.34;;;24.71;27.15
14689;BME280;7432;48.728;9.154;2023-04-27T10:12:15;96689.81;;;22.62;30.36
14689;BME280;7432;48.728;9.154;2023-04-27T10:14:50;96684.44;;;22.57;31.88
14689;BME280;7432;48.728;9.154;2023-04-27T10:17:17;96693.47;;;24.52;28.16
14689;BME280;7432;48.728;9.154;2023-04-27T10:19:54;96688.47;;;25.38;27.12
14689;BME280;7432;48.728;9.154;2023-04-27T10:22:21;96694.66;;;26.07;25.82
14689;BME280;7432;48.728;9.154;2023-04-27T10:24:48;96695.53;;;27.06;25.49
14689;BME280;7432;48.728;9.154;2023-04-27T10:27:18;96689.03;;;27.34;25.92
14689;BME280;7432;48.728;9.154;2023-04-27T10:29:47;96689.72;;;26.15;25.09
14689;BME280;7432;48.728;9.154;2023-04-27T10:32:18;96691.41;;;24.76;27.02
14689;BME280;7432;48.728;9.154;2023-04-27T10:34:46;96691.06;;;25.32;27.44
14689;BME280;7432;48.728;9.154;2023-04-27T10:37:14;96694.03;;;26.26;25.68
14689;BME280;7432;48.728;9.154;2023-04-27T10:39:42;96686.41;;;28.70;23.09
14689;BME280;7432;48.728;9.154;2023-04-27T10:42:09;96682.25;;;27.83;25.13
14689;BME280;7432;48.728;9.154;2023-04-27T10:44:37;96675.34;;;28.17;24.81
14689;BME280;7432;48.728;9.154;2023-04-27T10:47:12;96678.88;;;28.97;24.65
14689;BME280;7432;48.728;9.154;2023-04-27T10:49:39;96679.19;;;30.17;23.68
14689;BME280;7432;48.728;9.154;2023-04-27T10:52:05;96678.56;;;31.06;22.15
14689;BME280;7432;48.728;9.154;2023-04-27T10:54:32;96672.63;;;31.52;21.36
14689;BME280;7432;48.728;9.154;2023-04-27T10:57:03;96680.53;;;31.38;21.27
14689;BME280;7432;48.728;9.154;2023-04-27T10:59:30;96683.41;;;30.52;22.45
14689;BME280;7432;48.728;9.154;2023-04-27T11:01:58;96678.69;;;29.43;22.79
14689;BME280;7432;48.728;9.154;2023-04-27T11:04:34;96672.63;;;29.37;23.27
14689;BME280;7432;48.728;9.154;2023-04-27T11:07:02;96678.75;;;28.48;23.02
14689;BME280;7432;48.728;9.154;2023-04-27T11:09:29;96680.63;;;28.43;22.85
14689;BME280;7432;48.728;9.154;2023-04-27T11:11:55;96674.56;;;28.12;22.93
14689;BME280;7432;48.728;9.154;2023-04-27T11:14:22;96671.66;;;28.23;22.72
14689;BME280;7432;48.728;9.154;2023-04-27T11:16:48;96668.19;;;27.88;23.73
14689;BME280;7432;48.728;9.154;2023-04-27T11:19:16;96666.03;;;28.45;21.75
14689;BME280;7432;48.728;9.154;2023-04-27T11:21:42;96665.53;;;28.43;23.87
14689;BME280;7432;48.728;9.154;2023-04-27T11:24:09;96671.09;;;28.32;22.79
14689;BME280;7432;48.728;9.154;2023-04-27T11:26:35;96668.09;;;28.78;23.11
14689;BME280;7432;48.728;9.154;2023-04-27T11:29:03;96668.69;;;29.19;22.69
14689;BME280;7432;48.728;9.154;2023-04-27T11:31:41;96656.19;;;28.61;23.07
14689;BME280;7432;48.728;9.154;2023-04-27T11:34:08;96662.66;;;28.04;22.87
14689;BME280;7432;48.728;9.154;2023-04-27T11:36:36;96655.38;;;27.14;24.06
14689;BME280;7432;48.728;9.154;2023-04-27T11:39:02;96662.13;;;26.80;24.27
14689;BME280;7432;48.728;9.154;2023-04-27T11:41:32;96653.22;;;26.44;24.51
14689;BME280;7432;48.728;9.154;2023-04-27T11:44:03;96661.47;;;25.79;25.72
14689;BME280;7432;48.728;9.154;2023-04-27T11:46:31;96667.78;;;25.78;26.47
14689;BME280;7432;48.728;9.154;2023-04-27T11:49:00;96656.53;;;24.86;26.31
14689;BME280;7432;48.728;9.154;2023-04-27T11:51:28;96664.16;;;23.94;27.58
14689;BME280;7432;48.728;9.154;2023-04-27T11:54:00;96648.84;;;23.57;28.70
14689;BME280;7432;48.728;9.154;2023-04-27T11:56:33;96653.16;;;23.47;28.14
14689;BME280;7432;48.728;9.154;2023-04-27T11:59:00;96655.22;;;23.17;29.83
14689;BME280;7432;48.728;9.154;2023-04-27T12:01:27;96646.31;;;22.78;29.16
14689;BME280;7432;48.728;9.154;2023-04-27T12:03:53;96646.41;;;22.83;30.15
14689;BME280;7432;48.728;9.154;2023-04-27T12:06:23;96643.59;;;23.01;30.84
14689;BME280;7432;48.728;9.154;2023-04-27T12:08:49;96641.22;;;22.25;29.23
14689;BME280;7432;48.728;9.154;2023-04-27T12:11:17;96640.00;;;21.51;32.03
14689;BME280;7432;48.728;9.154;2023-04-27T12:13:44;96624.69;;;21.90;32.18
14689;BME280;7432;48.728;9.154;2023-04-27T12:16:11;96624.34;;;21.98;31.70
14689;BME280;7432;48.728;9.154;2023-04-27T12:18:37;96632.13;;;22.04;30.60
14689;BME280;7432;48.728;9.154;2023-04-27T12:21:04;96629.56;;;21.74;29.96
14689;BME280;7432;48.728;9.154;2023-04-27T12:23:32;96630.25;;;21.81;30.63
14689;BME280;7432;48.728;9.154;2023-04-27T12:25:58;96630.03;;;21.71;31.65
14689;BME280;7432;48.728;9.154;2023-04-27T12:28:26;96619.44;;;21.90;30.63
14689;BME280;7432;48.728;9.154;2023-04-27T12:30:52;96618.44;;;21.91;31.37
14689;BME280;7432;48.728;9.154;2023-04-27T12:33:19;96622.94;;;21.60;31.54
14689;BME280;7432;48.728;9.154;2023-04-27T12:35:46;96627.03;;;21.45;31.67
14689;BME280;7432;48.728;9.154;2023-04-27T12:38:12;96623.47;;;21.39;30.75
14689;BME280;7432;48.728;9.154;2023-04-27T12:40:38;96626.00;;;20.68;34.58
14689;BME280;7432;48.728;9.154;2023-04-27T12:43:05;96631.50;;;20.24;34.72
14689;BME280;7432;48.728;9.154;2023-04-27T12:45:33;96615.31;;;19.72;35.71
14689;BME280;7432;48.728;9.154;2023-04-27T12:47:59;96624.00;;;18.97;37.47
14689;BME280;7432;48.728;9.154;2023-04-27T12:50:26;96621.81;;;18.94;36.99
14689;BME280;7432;48.728;9.154;2023-04-27T12:52:52;96622.06;;;18.86;36.26
14689;BME280;7432;48.728;9.154;2023-04-27T12:55:18;96615.94;;;19.36;35.96
14689;BME280;7432;48.728;9.154;2023-04-27T12:57:45;96618.13;;;19.08;36.77
14689;BME280;7432;48.728;9.154;2023-04-27T13:00:12;96618.13;;;19.08;36.65
14689;BME280;7432;48.728;9.154;2023-04-27T13:02:40;96615.13;;;19.05;36.73
14689;BME280;7432;48.728;9.154;2023-04-27T13:05:07;96611.94;;;19.03;36.75
14689;BME280;7432;48.728;9.154;2023-04-27T13:07:35;96608.78;;;19.57;38.38
14689;BME280;7432;48.728;9.154;2023-04-27T13:10:01;96610.09;;;19.41;36.25
14689;BME280;7432;48.728;9.154;2023-04-27T13:12:28;96603.66;;;19.68;36.66
14689;BME280;7432;48.728;9.154;2023-04-27T13:14:54;96606.59;;;19.53;36.20